createdAt,value
2023-03-17T00:02:23.211Z,6.10
2023-03-17T00:04:49.611Z,5.75
2023-03-17T00:07:17.063Z,5.00
2023-03-17T00:09:43.373Z,4.70
2023-03-17T00:12:10.691Z,5.70
2023-03-17T00:14:37.135Z,5.35
2023-03-17T00:17:03.528Z,6.57
2023-03-17T00:19:32.043Z,4.82
2023-03-17T00:21:59.022Z,4.50
2023-03-17T00:24:25.879Z,6.03
2023-03-17T00:26:52.634Z,5.22
2023-03-17T00:31:45.690Z,5.60
2023-03-17T00:34:15.592Z,7.32
2023-03-17T00:36:42.546Z,4.45
2023-03-17T00:41:41.734Z,4.40
2023-03-17T00:44:08.159Z,4.82
2023-03-17T00:46:38.137Z,7.80
2023-03-17T00:49:20.932Z,4.63
2023-03-17T00:51:47.988Z,5.43
2023-03-17T00:54:15.566Z,4.75
2023-03-17T00:56:43.670Z,8.45
2023-03-17T00:59:22.200Z,6.25
2023-03-17T01:01:49.053Z,7.18
2023-03-17T01:04:15.724Z,6.38
2023-03-17T01:06:43.149Z,7.85
2023-03-17T01:09:12.789Z,5.90
2023-03-17T01:11:39.345Z,5.20
2023-03-17T01:14:09.498Z,3.78
2023-03-17T01:16:35.914Z,4.25
2023-03-17T01:19:02.407Z,5.28
2023-03-17T01:21:29.474Z,5.07
2023-03-17T01:23:55.993Z,8.25
2023-03-17T01:26:25.722Z,6.93
2023-03-17T01:28:52.616Z,4.25
2023-03-17T01:31:19.489Z,5.30
2023-03-17T01:33:46.151Z,3.78
2023-03-17T01:36:12.594Z,4.28
2023-03-17T01:38:38.896Z,7.05
2023-03-17T01:41:05.353Z,5.20
2023-03-17T01:43:32.166Z,7.00
2023-03-17T01:48:26.408Z,5.68
2023-03-17T01:50:53.738Z,4.80
2023-03-17T01:53:21.368Z,7.72
2023-03-17T01:55:49.376Z,6.07
2023-03-17T01:58:17.047Z,4.50
2023-03-17T02:00:44.083Z,6.32
2023-03-17T02:03:11.534Z,4.15
2023-03-17T02:05:38.569Z,3.97
2023-03-17T02:08:15.113Z,5.80
2023-03-17T02:13:09.767Z,3.63
2023-03-17T02:15:40.735Z,5.45
2023-03-17T02:18:08.136Z,6.53
2023-03-17T02:20:36.404Z,5.30
2023-03-17T02:23:04.253Z,5.03
2023-03-17T02:25:33.233Z,4.10
2023-03-17T02:28:02.104Z,4.22
2023-03-17T02:30:28.930Z,5.07
2023-03-17T02:32:55.505Z,5.65
2023-03-17T02:35:22.258Z,6.65
2023-03-17T02:40:15.256Z,4.78
2023-03-17T02:47:35.739Z,4.93
2023-03-17T02:50:02.176Z,5.47
2023-03-17T02:52:28.564Z,5.07
2023-03-17T02:54:55.176Z,5.43
2023-03-17T02:57:21.964Z,4.18
2023-03-17T03:02:14.718Z,4.03
2023-03-17T03:04:41.883Z,4.32
2023-03-17T03:07:08.800Z,4.97
2023-03-17T03:09:35.370Z,4.90
2023-03-17T03:12:01.869Z,4.20
2023-03-17T03:14:28.225Z,4.45
2023-03-17T03:16:54.834Z,4.10
2023-03-17T03:19:22.309Z,5.20
2023-03-17T03:21:49.139Z,3.92
2023-03-17T03:26:42.361Z,4.35
2023-03-17T03:29:08.999Z,2.83
2023-03-17T03:31:35.369Z,3.40
2023-03-17T03:34:01.714Z,3.67
2023-03-17T03:36:28.508Z,3.53
2023-03-17T03:41:21.306Z,4.43
2023-03-17T03:43:47.657Z,4.72
2023-03-17T03:46:14.059Z,4.25
2023-03-17T03:48:40.444Z,5.80
2023-03-17T03:51:07.004Z,8.75
2023-03-17T03:53:33.426Z,3.60
2023-03-17T03:55:59.797Z,4.80
2023-03-17T03:58:26.157Z,7.55
2023-03-17T04:00:52.516Z,3.40
2023-03-17T04:03:18.878Z,4.13
2023-03-17T04:05:45.457Z,6.38
2023-03-17T04:08:11.901Z,4.95
2023-03-17T04:10:38.231Z,4.70
2023-03-17T04:13:04.671Z,5.68
2023-03-17T04:15:31.128Z,3.78
2023-03-17T04:17:57.561Z,4.10
2023-03-17T04:20:23.891Z,4.60
2023-03-17T04:22:50.292Z,3.92
2023-03-17T04:25:16.696Z,3.38
2023-03-17T04:27:43.177Z,4.55
2023-03-17T04:30:17.051Z,4.70
2023-03-17T04:32:44.050Z,4.00
2023-03-17T04:35:17.329Z,4.45
2023-03-17T04:37:43.656Z,5.13
2023-03-17T04:40:11.005Z,6.97
2023-03-17T04:42:37.548Z,4.97
2023-03-17T04:45:04.591Z,4.57
2023-03-17T04:47:31.087Z,3.20
2023-03-17T04:49:57.469Z,4.18
2023-03-17T04:52:23.863Z,3.75
2023-03-17T04:54:50.419Z,4.10
2023-03-17T04:57:16.828Z,5.30
2023-03-17T04:59:43.180Z,4.47
2023-03-17T05:02:09.550Z,4.07
2023-03-17T05:04:36.236Z,4.38
2023-03-17T05:07:02.846Z,4.38
2023-03-17T05:09:29.196Z,5.40
2023-03-17T05:11:55.922Z,4.97
2023-03-17T05:19:15.389Z,3.63
2023-03-17T05:21:42.558Z,4.30
2023-03-17T05:24:09.180Z,6.00
2023-03-17T05:26:35.904Z,3.10
2023-03-17T05:29:02.360Z,4.32
2023-03-17T05:31:29.792Z,3.75
2023-03-17T05:33:56.537Z,4.78
2023-03-17T05:38:49.051Z,6.03
2023-03-17T05:41:15.709Z,3.95
2023-03-17T05:43:42.744Z,4.78
2023-03-17T05:46:09.193Z,5.60
2023-03-17T05:48:36.358Z,5.40
2023-03-17T05:51:02.797Z,5.47
2023-03-17T05:53:29.593Z,4.25
2023-03-17T05:58:22.597Z,5.55
2023-03-17T06:00:48.952Z,3.85
2023-03-17T06:03:15.655Z,4.45
2023-03-17T06:08:08.413Z,7.47
2023-03-17T06:10:34.779Z,3.47
2023-03-17T06:13:03.760Z,4.65
2023-03-17T06:15:30.795Z,4.35
2023-03-17T06:17:57.330Z,4.30
2023-03-17T06:20:23.648Z,6.47
2023-03-17T06:23:03.305Z,6.85
2023-03-17T06:25:31.595Z,5.90
2023-03-17T06:27:58.188Z,4.35
2023-03-17T06:30:24.583Z,6.50
2023-03-17T06:32:51.008Z,5.50
2023-03-17T06:35:18.056Z,4.20
2023-03-17T06:37:44.866Z,5.53
2023-03-17T06:42:37.538Z,5.72
2023-03-17T06:45:04.131Z,4.05
2023-03-17T06:47:30.633Z,5.85
2023-03-17T06:49:57.055Z,5.68
2023-03-17T06:52:23.512Z,5.38
2023-03-17T06:54:49.816Z,4.85
2023-03-17T06:57:16.655Z,7.40
2023-03-17T06:59:42.988Z,7.97
2023-03-17T07:02:11.209Z,5.50
2023-03-17T07:04:38.274Z,6.47
2023-03-17T07:07:05.639Z,4.95
2023-03-17T07:09:34.232Z,5.22
2023-03-17T07:12:05.000Z,5.72
2023-03-17T07:14:35.473Z,9.73
2023-03-17T07:17:04.919Z,5.93
2023-03-17T07:19:31.777Z,6.00
2023-03-17T07:21:58.236Z,5.63
2023-03-17T07:24:25.640Z,6.70
2023-03-17T07:26:52.111Z,7.30
2023-03-17T07:29:18.527Z,4.78
2023-03-17T07:31:44.954Z,4.93
2023-03-17T07:34:11.347Z,5.28
2023-03-17T07:36:37.683Z,4.47
2023-03-17T07:39:04.405Z,5.07
2023-03-17T07:43:58.105Z,4.38
2023-03-17T07:46:24.682Z,8.48
2023-03-17T07:51:19.113Z,5.22
2023-03-17T07:53:46.287Z,6.63
2023-03-17T07:56:13.001Z,4.70
2023-03-17T08:01:08.458Z,5.30
2023-03-17T08:03:34.945Z,8.05
2023-03-17T08:06:01.512Z,5.45
2023-03-17T08:08:28.160Z,6.75
2023-03-17T08:13:20.869Z,8.93
2023-03-17T08:15:47.235Z,5.05
2023-03-17T08:18:13.687Z,8.23
2023-03-17T08:20:40.681Z,8.48
2023-03-17T08:23:07.298Z,4.80
2023-03-17T08:30:27.142Z,5.40
2023-03-17T08:32:54.653Z,5.88
2023-03-17T08:35:21.106Z,5.07
2023-03-17T08:37:47.637Z,6.07
2023-03-17T08:40:17.052Z,5.05
2023-03-17T08:42:44.048Z,7.53
2023-03-17T08:45:11.070Z,5.90
2023-03-17T08:47:38.343Z,7.45
2023-03-17T08:50:06.604Z,6.28
2023-03-17T08:52:33.979Z,6.28
2023-03-17T08:55:00.784Z,8.07
2023-03-17T08:57:28.045Z,7.55
2023-03-17T08:59:54.408Z,5.03
2023-03-17T09:02:21.311Z,5.20
2023-03-17T09:04:48.204Z,7.90
2023-03-17T09:07:15.026Z,6.50
2023-03-17T09:09:42.290Z,6.22
2023-03-17T09:12:09.301Z,5.28
2023-03-17T09:14:43.364Z,6.40
2023-03-17T09:17:11.175Z,5.80
2023-03-17T09:19:38.784Z,5.97
2023-03-17T09:22:05.232Z,6.20
2023-03-17T09:24:31.850Z,5.13
2023-03-17T09:29:26.423Z,8.23
2023-03-17T09:41:44.137Z,6.40
2023-03-17T09:44:20.733Z,6.93
2023-03-17T09:47:17.364Z,12.85
2023-03-17T09:49:49.167Z,6.00
2023-03-17T09:52:16.754Z,6.68
2023-03-17T09:54:43.324Z,8.07
2023-03-17T10:07:00.114Z,5.95
2023-03-17T10:09:41.559Z,7.50
2023-03-17T10:12:07.954Z,6.53
2023-03-17T10:14:35.240Z,6.95
2023-03-17T10:17:04.114Z,9.95
2023-03-17T10:19:30.529Z,6.97
2023-03-17T10:22:17.609Z,5.10
2023-03-17T10:24:46.629Z,6.47
2023-03-17T10:27:16.261Z,5.70
2023-03-17T10:29:42.781Z,7.72
2023-03-17T10:37:06.525Z,8.82
2023-03-17T10:39:41.494Z,10.05
2023-03-17T10:42:09.483Z,5.53
2023-03-17T10:44:41.993Z,8.38
2023-03-17T10:47:20.356Z,6.82
2023-03-17T10:49:46.991Z,8.82
2023-03-17T10:52:18.825Z,9.55
2023-03-17T10:54:49.018Z,7.40
2023-03-17T10:57:15.846Z,7.07
2023-03-17T10:59:44.457Z,6.82
2023-03-17T11:02:16.910Z,5.50
2023-03-17T11:04:43.306Z,6.05
2023-03-17T11:07:15.471Z,6.65
2023-03-17T11:09:41.885Z,7.55
2023-03-17T11:12:19.050Z,8.32
2023-03-17T11:14:45.362Z,11.05
2023-03-17T11:17:20.681Z,7.18
2023-03-17T11:19:55.584Z,7.77
2023-03-17T11:22:29.056Z,5.38
2023-03-17T11:25:01.627Z,6.10
2023-03-17T11:27:29.161Z,7.65
2023-03-17T11:30:14.835Z,6.20
2023-03-17T11:32:56.311Z,7.82
2023-03-17T11:35:39.636Z,7.15
2023-03-17T11:38:10.988Z,7.00
2023-03-17T11:41:00.631Z,7.13
2023-03-17T11:43:34.467Z,6.45
2023-03-17T11:46:18.653Z,8.82
2023-03-17T11:48:55.128Z,8.55
2023-03-17T11:51:27.822Z,8.38
2023-03-17T11:53:54.608Z,8.55
2023-03-17T11:56:24.003Z,6.65
2023-03-17T11:58:53.280Z,7.13
2023-03-17T12:01:23.655Z,6.18
2023-03-17T12:04:09.223Z,7.70
2023-03-17T12:06:39.594Z,7.30
2023-03-17T12:09:13.037Z,7.05
2023-03-17T12:11:41.469Z,8.00
2023-03-17T12:14:20.382Z,8.23
2023-03-17T12:16:54.393Z,10.85
2023-03-17T12:19:50.216Z,10.02
2023-03-17T12:22:26.674Z,7.72
2023-03-17T12:25:05.688Z,6.63
2023-03-17T12:27:33.867Z,9.60
2023-03-17T12:30:02.475Z,8.23
2023-03-17T12:32:42.043Z,7.60
2023-03-17T12:35:22.305Z,7.13
2023-03-17T12:37:49.050Z,8.27
2023-03-17T12:40:18.430Z,7.07
2023-03-17T12:42:56.831Z,8.95
2023-03-17T12:45:35.840Z,9.00
2023-03-17T12:48:14.249Z,9.48
2023-03-17T12:51:06.322Z,11.55
2023-03-17T12:53:37.761Z,9.35
2023-03-17T12:56:27.428Z,9.25
2023-03-17T12:58:58.661Z,8.55
2023-03-17T13:01:37.839Z,8.43
2023-03-17T13:04:07.089Z,9.05
2023-03-17T13:06:38.197Z,8.05
2023-03-17T13:09:30.258Z,6.97
2023-03-17T13:11:58.135Z,14.32
2023-03-17T13:14:27.005Z,7.72
2023-03-17T13:17:04.509Z,10.23
2023-03-17T13:19:32.394Z,7.15
2023-03-17T13:22:05.123Z,8.85
2023-03-17T13:24:39.961Z,9.35
2023-03-17T13:27:10.086Z,9.52
2023-03-17T13:29:36.435Z,10.98
2023-03-17T13:34:29.010Z,9.75
2023-03-17T13:39:44.949Z,16.27
2023-03-17T13:42:18.137Z,10.40
2023-03-17T13:44:47.905Z,8.55
2023-03-17T13:47:23.584Z,6.60
2023-03-17T13:49:51.525Z,12.55
2023-03-17T13:52:27.656Z,8.68
2023-03-17T13:57:23.484Z,9.02
2023-03-17T14:00:08.765Z,8.40
2023-03-17T14:02:36.415Z,9.30
2023-03-17T14:05:04.563Z,7.75
2023-03-17T14:07:49.581Z,7.75
2023-03-17T14:10:17.023Z,6.70
2023-03-17T14:12:58.921Z,6.93
2023-03-17T14:15:32.645Z,7.10
2023-03-17T14:18:03.000Z,7.55
2023-03-17T14:20:29.488Z,8.07
2023-03-17T14:22:58.909Z,11.63
2023-03-17T14:25:27.776Z,11.52
2023-03-17T14:27:56.044Z,9.65
2023-03-17T14:30:27.148Z,12.00
2023-03-17T14:32:59.738Z,7.32
2023-03-17T14:35:29.817Z,8.27
2023-03-17T14:37:56.375Z,10.82
2023-03-17T14:42:49.203Z,9.20
2023-03-17T14:45:26.855Z,8.05
2023-03-17T14:47:53.593Z,8.68
2023-03-17T14:50:25.907Z,8.32
2023-03-17T14:52:52.429Z,10.18
2023-03-17T14:55:19.790Z,9.38
2023-03-17T14:57:51.140Z,7.97
2023-03-17T15:00:21.790Z,9.23
2023-03-17T15:02:57.692Z,10.82
2023-03-17T15:05:37.151Z,10.27
2023-03-17T15:08:23.431Z,7.00
2023-03-17T15:10:49.941Z,8.55
2023-03-17T15:13:16.360Z,11.32
2023-03-17T15:15:44.217Z,10.05
2023-03-17T15:18:13.108Z,6.40
2023-03-17T15:20:41.467Z,8.45
2023-03-17T15:23:18.677Z,11.13
2023-03-17T15:25:51.093Z,9.50
2023-03-17T15:28:18.994Z,7.75
2023-03-17T15:30:52.813Z,9.20
2023-03-17T15:33:28.320Z,9.13
2023-03-17T15:35:56.469Z,12.23
2023-03-17T15:38:23.318Z,10.45
2023-03-17T15:40:50.205Z,8.25
2023-03-17T15:43:17.340Z,11.23
2023-03-17T15:45:45.421Z,8.48
2023-03-17T15:48:23.669Z,10.60
2023-03-17T15:50:50.676Z,8.90
2023-03-17T15:53:17.844Z,10.05
2023-03-17T15:55:44.619Z,8.60
2023-03-17T15:58:10.975Z,7.57
2023-03-17T16:03:24.388Z,8.90
2023-03-17T16:05:50.738Z,8.23
2023-03-17T16:10:45.194Z,9.63
2023-03-17T16:13:12.034Z,9.77
2023-03-17T16:15:39.368Z,8.70
2023-03-17T16:18:08.160Z,10.23
2023-03-17T16:20:38.418Z,10.50
2023-03-17T16:23:07.562Z,7.35
2023-03-17T16:25:34.152Z,9.30
2023-03-17T16:28:01.538Z,11.13
2023-03-17T16:30:30.962Z,10.80
2023-03-17T16:32:59.757Z,9.27
2023-03-17T16:35:26.307Z,9.07
2023-03-17T16:37:54.144Z,13.88
2023-03-17T16:40:22.582Z,9.25
2023-03-17T16:42:48.999Z,14.15
2023-03-17T16:47:41.632Z,12.30
2023-03-17T16:50:14.343Z,15.25
2023-03-17T16:52:40.676Z,13.07
2023-03-17T16:55:09.299Z,13.52
2023-03-17T16:57:36.681Z,10.23
2023-03-17T17:00:04.227Z,11.45
2023-03-17T17:02:30.770Z,12.60
2023-03-17T17:04:57.218Z,10.85
2023-03-17T17:09:49.865Z,11.65
2023-03-17T17:12:16.253Z,13.05
2023-03-17T17:17:09.382Z,12.25
2023-03-17T17:19:35.806Z,8.73
2023-03-17T17:26:54.753Z,15.93
2023-03-17T17:29:21.134Z,18.77
2023-03-17T17:31:47.563Z,15.75
2023-03-17T17:36:40.732Z,13.45
2023-03-17T17:39:07.064Z,15.63
2023-03-17T17:41:34.304Z,14.82
2023-03-17T17:44:00.711Z,14.43
2023-03-17T17:46:27.088Z,15.18
2023-03-17T17:48:53.481Z,17.20
2023-03-17T17:51:19.855Z,11.70
2023-03-17T17:53:46.183Z,21.42
2023-03-17T17:56:16.740Z,15.18
2023-03-17T17:58:43.611Z,17.83
2023-03-17T18:01:12.474Z,16.30
2023-03-17T18:03:41.484Z,17.80
2023-03-17T18:06:07.973Z,15.10
2023-03-17T18:08:34.707Z,18.77
2023-03-17T18:11:01.057Z,17.38
2023-03-17T18:13:27.376Z,12.48
2023-03-17T18:15:53.956Z,14.13
2023-03-17T18:20:46.745Z,16.98
2023-03-17T18:30:35.655Z,15.18
2023-03-17T18:33:07.842Z,16.33
2023-03-17T18:35:34.405Z,13.18
2023-03-17T18:40:27.640Z,15.43
2023-03-17T18:45:20.685Z,16.67
2023-03-17T18:47:47.054Z,17.00
2023-03-17T18:50:15.377Z,15.48
2023-03-17T18:52:42.674Z,14.88
2023-03-17T18:55:10.004Z,13.88
2023-03-17T18:57:37.073Z,12.75
2023-03-17T19:00:05.022Z,12.82
2023-03-17T19:02:31.676Z,12.68
2023-03-17T19:04:58.084Z,15.25
2023-03-17T19:07:24.426Z,11.63
2023-03-17T19:09:50.947Z,13.15
2023-03-17T19:17:10.206Z,18.13
2023-03-17T19:19:36.900Z,12.75
2023-03-17T19:22:03.938Z,15.68
2023-03-17T19:24:31.538Z,11.45
2023-03-17T19:26:57.892Z,11.98
2023-03-17T19:29:24.312Z,10.73
2023-03-17T19:31:50.669Z,9.50
2023-03-17T19:34:17.084Z,8.38
2023-03-17T19:36:45.724Z,9.80
2023-03-17T19:39:12.771Z,5.93
2023-03-17T19:41:39.189Z,8.55
2023-03-17T19:44:08.279Z,8.00
2023-03-17T19:46:37.688Z,6.68
2023-03-17T19:49:04.812Z,11.20
2023-03-17T19:51:32.869Z,8.25
2023-03-17T19:53:59.269Z,10.95
2023-03-17T19:56:25.806Z,8.38
2023-03-17T20:03:44.876Z,9.07
2023-03-17T20:06:12.281Z,6.75
2023-03-17T20:08:40.439Z,5.70
2023-03-17T20:11:07.731Z,8.43
2023-03-17T20:13:34.715Z,10.38
2023-03-17T20:16:01.751Z,7.78
2023-03-17T20:18:30.711Z,8.80
2023-03-17T20:20:58.595Z,9.52
2023-03-17T20:23:25.086Z,8.32
2023-03-17T20:25:58.405Z,8.75
2023-03-17T20:28:25.160Z,8.45
2023-03-17T20:30:51.616Z,9.43
2023-03-17T20:33:18.068Z,12.20
2023-03-17T20:35:46.785Z,10.18
2023-03-17T20:38:13.496Z,9.85
2023-03-17T20:45:32.535Z,8.50
2023-03-17T20:47:58.973Z,9.88
2023-03-17T20:50:25.399Z,9.73
2023-03-17T20:52:52.331Z,9.57
2023-03-17T20:55:19.703Z,12.45
2023-03-17T20:57:47.497Z,10.38
2023-03-17T21:00:18.310Z,12.88
2023-03-17T21:02:45.655Z,11.70
2023-03-17T21:05:16.209Z,11.73
2023-03-17T21:07:43.292Z,12.18
2023-03-17T21:10:09.863Z,11.70
2023-03-17T21:15:03.595Z,12.02
2023-03-17T21:17:30.125Z,9.60
2023-03-17T21:22:23.263Z,10.38
2023-03-17T21:24:49.752Z,10.25
2023-03-17T21:27:17.160Z,9.32
2023-03-17T21:29:43.707Z,12.85
2023-03-17T21:32:10.305Z,10.50
2023-03-17T21:37:03.531Z,11.23
2023-03-17T21:39:29.973Z,11.73
2023-03-17T21:41:56.885Z,9.70
2023-03-17T21:44:23.332Z,12.35
2023-03-17T21:46:49.736Z,12.10
2023-03-17T21:49:16.722Z,12.68
2023-03-17T21:51:44.189Z,10.38
2023-03-17T21:54:10.583Z,15.95
2023-03-17T21:56:37.859Z,11.85
2023-03-17T21:59:05.645Z,12.68
2023-03-17T22:01:31.983Z,13.85
2023-03-17T22:03:59.448Z,12.82
2023-03-17T22:06:27.427Z,10.60
2023-03-17T22:08:54.063Z,12.68
2023-03-17T22:13:47.057Z,10.90
2023-03-17T22:16:13.948Z,14.18
2023-03-17T22:18:40.488Z,13.93
2023-03-17T22:21:08.159Z,14.07
2023-03-17T22:23:39.613Z,11.88
2023-03-17T22:26:06.587Z,11.23
2023-03-17T22:28:32.956Z,9.43
2023-03-17T22:30:59.349Z,11.52
2023-03-17T22:33:25.723Z,15.05
2023-03-17T22:35:52.133Z,12.00
2023-03-17T22:38:18.600Z,15.68
2023-03-17T22:40:44.897Z,11.55
2023-03-17T22:43:11.801Z,12.02
2023-03-17T22:45:38.201Z,14.45
2023-03-17T22:48:04.749Z,15.45
2023-03-17T22:52:57.844Z,12.18
2023-03-17T22:55:24.284Z,15.60
2023-03-17T22:57:50.710Z,18.15
2023-03-17T23:00:19.932Z,15.50
2023-03-17T23:02:46.565Z,15.10
2023-03-17T23:05:13.518Z,13.40
2023-03-17T23:07:50.436Z,14.15
2023-03-17T23:10:18.062Z,17.15
2023-03-17T23:12:44.753Z,14.63
2023-03-17T23:15:11.437Z,13.02
2023-03-17T23:17:38.456Z,13.55
2023-03-17T23:20:05.500Z,14.45
2023-03-17T23:22:32.169Z,12.73
2023-03-17T23:32:18.043Z,13.20
2023-03-17T23:37:10.942Z,13.85
2023-03-17T23:39:37.315Z,11.93
2023-03-17T23:42:04.063Z,14.00
2023-03-17T23:44:30.853Z,12.55
2023-03-17T23:46:57.291Z,13.75
2023-03-17T23:49:24.240Z,13.00
2023-03-17T23:51:50.545Z,15.25
2023-03-17T23:54:16.909Z,15.95
2023-03-17T23:56:43.207Z,14.35
2023-03-17T23:59:09.595Z,14.77
